Time;durP1;ratioP1;P1;durP2;ratioP2;P2;SDS_P1;SDS_P2;PMS_P1;PMS_P2;Temp;Humidity;BMP_temperature;BMP_pressure;BME280_temperature;BME280_humidity;BME280_pressure;Samples;Min_cycle;Max_cycle;Signal;HPM_P1;HPM_P2
2021/06/22 00:02:11;;;;;;;7.27;5.33;;;19.50;99.90;;;;;;6322435;28;20608;-71
2021/06/22 00:05:15;;;;;;;9.77;5.47;;;19.50;99.90;;;;;;6322639;28;20198;-71
2021/06/22 00:08:18;;;;;;;8.00;5.67;;;19.40;99.90;;;;;;6323127;28;20343;-71
2021/06/22 00:11:38;;;;;;;7.07;5.97;;;19.40;99.90;;;;;;6323298;28;20327;-71
2021/06/22 00:14:40;;;;;;;6.50;5.43;;;19.40;99.90;;;;;;6322976;28;20193;-71
2021/06/22 00:17:43;;;;;;;8.60;5.93;;;19.40;99.90;;;;;;6322052;28;20263;-71
2021/06/22 00:20:45;;;;;;;7.07;5.73;;;19.40;99.90;;;;;;6321396;28;20281;-71
2021/06/22 00:23:48;;;;;;;9.63;6.50;;;19.40;99.90;;;;;;6321717;28;20217;-71
2021/06/22 00:26:50;;;;;;;5.97;5.40;;;19.30;99.90;;;;;;6324623;28;20182;-71
2021/06/22 00:29:52;;;;;;;5.90;5.23;;;19.30;99.90;;;;;;6297032;28;20194;-71
2021/06/22 00:32:55;;;;;;;6.80;5.83;;;19.30;99.90;;;;;;6296872;28;20248;-71
2021/06/22 00:35:57;;;;;;;7.43;5.90;;;19.30;99.90;;;;;;6297385;28;20336;-71
2021/06/22 00:38:59;;;;;;;8.47;5.80;;;19.30;99.90;;;;;;6296893;28;20190;-71
2021/06/22 00:42:03;;;;;;;8.33;5.90;;;19.30;99.90;;;;;;6296388;28;20198;-71
2021/06/22 00:45:06;;;;;;;10.27;6.30;;;19.30;99.90;;;;;;6296026;28;20194;-71
2021/06/22 00:48:09;;;;;;;11.37;7.10;;;19.20;99.90;;;;;;6296495;28;20197;-71
2021/06/22 00:51:11;;;;;;;8.97;5.80;;;19.10;99.90;;;;;;6295858;28;20201;-71
2021/06/22 00:54:15;;;;;;;7.40;6.40;;;19.10;99.90;;;;;;6297697;28;20179;-71
2021/06/22 00:57:20;;;;;;;7.67;6.60;;;19.00;99.90;;;;;;6299558;28;20665;-71
2021/06/22 01:00:23;;;;;;;9.47;6.80;;;19.00;99.90;;;;;;6321075;28;20205;-71
2021/06/22 01:03:26;;;;;;;10.77;7.30;;;19.00;99.90;;;;;;6322154;28;20186;-71
2021/06/22 01:06:34;;;;;;;8.47;6.67;;;19.00;99.90;;;;;;6321776;28;20261;-71
2021/06/22 01:09:44;;;;;;;7.00;6.30;;;18.90;99.90;;;;;;6305193;28;20197;-71
2021/06/22 01:12:47;;;;;;;9.47;6.97;;;18.90;99.90;;;;;;6320157;28;20241;-71
2021/06/22 01:15:50;;;;;;;9.00;7.03;;;18.90;99.90;;;;;;6304067;28;20197;-71
2021/06/22 01:19:01;;;;;;;7.83;6.53;;;18.90;99.90;;;;;;6321950;28;20206;-71
2021/06/22 01:22:23;;;;;;;7.63;6.10;;;18.90;99.90;;;;;;6321123;28;20209;-71
2021/06/22 01:25:27;;;;;;;8.17;6.70;;;18.90;99.90;;;;;;6320628;28;20205;-71
2021/06/22 01:28:32;;;;;;;7.00;6.30;;;18.90;99.90;;;;;;6319861;28;20681;-71
2021/06/22 01:31:45;;;;;;;10.23;7.27;;;18.90;99.90;;;;;;6320255;28;20267;-71
2021/06/22 01:34:47;;;;;;;8.03;6.33;;;18.90;99.90;;;;;;6321259;28;20194;-72
2021/06/22 01:37:55;;;;;;;8.17;7.13;;;18.90;99.90;;;;;;6320313;28;20679;-72
2021/06/22 01:41:03;;;;;;;8.53;7.57;;;18.80;99.90;;;;;;6319890;28;20325;-72
2021/06/22 01:44:05;;;;;;;8.33;6.70;;;18.80;99.90;;;;;;6320020;28;20197;-72
2021/06/22 01:47:08;;;;;;;8.07;7.00;;;18.80;99.90;;;;;;6321565;28;20279;-72
2021/06/22 01:50:12;;;;;;;16.27;7.87;;;18.80;99.90;;;;;;6318818;28;20356;-72
2021/06/22 01:53:15;;;;;;;8.83;7.10;;;18.70;99.90;;;;;;6321234;28;20202;-72
2021/06/22 01:56:17;;;;;;;9.10;6.63;;;18.70;99.90;;;;;;6321203;28;20215;-72
2021/06/22 01:59:22;;;;;;;12.77;7.13;;;18.70;99.90;;;;;;6319722;28;20194;-72
2021/06/22 02:02:36;;;;;;;10.40;7.00;;;18.70;99.90;;;;;;6320818;28;20174;-72
2021/06/22 02:05:46;;;;;;;9.23;6.90;;;18.60;99.90;;;;;;6318921;28;20550;-72
2021/06/22 02:08:49;;;;;;;8.23;7.20;;;18.60;99.90;;;;;;6319533;28;20205;-72
2021/06/22 02:11:51;;;;;;;8.03;6.70;;;18.60;99.90;;;;;;6319938;28;20225;-71
2021/06/22 02:14:54;;;;;;;9.30;6.83;;;18.60;99.90;;;;;;6320549;28;20278;-71
2021/06/22 02:17:57;;;;;;;9.30;7.07;;;18.60;99.90;;;;;;6319296;28;20252;-71
2021/06/22 02:21:00;;;;;;;10.90;6.57;;;18.60;99.90;;;;;;6318423;28;20494;-72
2021/06/22 02:24:05;;;;;;;9.53;6.97;;;18.60;99.90;;;;;;6319093;28;20603;-72
2021/06/22 02:27:07;;;;;;;8.00;7.20;;;18.60;99.90;;;;;;6319882;28;20190;-72
2021/06/22 02:30:17;;;;;;;8.87;7.67;;;18.60;99.90;;;;;;6318927;28;20284;-72
2021/06/22 02:33:20;;;;;;;10.47;7.00;;;18.70;99.90;;;;;;6302021;28;20210;-72
2021/06/22 02:36:27;;;;;;;8.93;7.13;;;18.70;99.90;;;;;;6319093;28;20218;-72
2021/06/22 02:39:30;;;;;;;7.30;6.53;;;18.80;99.90;;;;;;6319096;28;20185;-72
2021/06/22 02:42:32;;;;;;;11.50;7.57;;;18.80;99.90;;;;;;6319665;28;20653;-72
2021/06/22 02:45:46;;;;;;;9.40;7.27;;;18.80;99.90;;;;;;6318948;28;20193;-72
2021/06/22 02:48:54;;;;;;;12.13;8.87;;;18.80;99.90;;;;;;6318210;28;20220;-72
2021/06/22 02:51:58;;;;;;;15.27;10.57;;;18.80;99.90;;;;;;6318891;28;20214;-72
2021/06/22 02:55:05;;;;;;;12.47;9.73;;;19.00;99.90;;;;;;6318801;28;20194;-72
2021/06/22 02:58:08;;;;;;;17.40;9.87;;;19.20;99.90;;;;;;6317967;28;20231;-72
2021/06/22 03:01:13;;;;;;;12.23;8.20;;;19.40;99.90;;;;;;6319763;28;20201;-72
2021/06/22 03:04:17;;;;;;;8.67;6.70;;;19.60;99.90;;;;;;6323262;28;20743;-72
2021/06/22 03:07:19;;;;;;;11.20;6.80;;;19.70;99.90;;;;;;6325142;28;20654;-72
2021/06/22 03:10:24;;;;;;;9.50;5.10;;;19.80;99.90;;;;;;6323316;28;20680;-72
2021/06/22 03:13:27;;;;;;;8.00;4.43;;;19.90;99.90;;;;;;6323657;28;20323;-72
2021/06/22 03:16:30;;;;;;;9.73;4.00;;;19.90;99.90;;;;;;6306960;28;20287;-72
2021/06/22 03:19:32;;;;;;;6.43;3.50;;;19.90;99.90;;;;;;6322969;28;20608;-72
2021/06/22 03:22:40;;;;;;;5.63;3.10;;;19.90;99.90;;;;;;6324934;28;20292;-72
2021/06/22 03:25:42;;;;;;;4.67;2.87;;;19.90;99.90;;;;;;6322891;28;20335;-72
2021/06/22 03:28:44;;;;;;;3.97;2.33;;;19.90;99.90;;;;;;6323060;28;20201;-72
2021/06/22 03:32:16;;;;;;;4.00;2.10;;;19.90;99.90;;;;;;6319068;28;20586;-72
2021/06/22 03:35:19;;;;;;;5.87;2.33;;;19.90;99.90;;;;;;6323968;28;20190;-72
2021/06/22 03:38:22;;;;;;;4.07;1.90;;;19.90;99.90;;;;;;6324191;28;20217;-72
2021/06/22 03:41:25;;;;;;;4.10;2.03;;;19.90;99.90;;;;;;6323769;28;20194;-72
2021/06/22 03:44:27;;;;;;;2.53;1.60;;;19.90;99.90;;;;;;6324193;28;20700;-72
2021/06/22 03:47:35;;;;;;;2.83;1.70;;;20.00;99.90;;;;;;6322277;28;20186;-72
2021/06/22 03:50:38;;;;;;;2.43;1.50;;;20.00;99.90;;;;;;6322673;28;20701;-72
2021/06/22 03:53:42;;;;;;;2.57;1.17;;;20.10;99.90;;;;;;6322592;28;20247;-72
2021/06/22 03:56:45;;;;;;;3.13;1.33;;;20.10;99.90;;;;;;6323412;28;20182;-72
2021/06/22 03:59:57;;;;;;;4.73;1.43;;;20.10;99.90;;;;;;6297318;28;20194;-72
2021/06/22 04:03:02;;;;;;;4.17;1.37;;;20.20;99.90;;;;;;6296618;28;20281;-72
2021/06/22 04:06:08;;;;;;;3.87;1.30;;;20.20;99.90;;;;;;6297360;28;20191;-72
2021/06/22 04:09:10;;;;;;;3.17;1.17;;;20.20;99.90;;;;;;6297086;28;20191;-72
2021/06/22 04:12:17;;;;;;;4.70;1.30;;;20.30;99.90;;;;;;6295869;28;20588;-72
2021/06/22 04:15:20;;;;;;;2.93;0.90;;;20.30;99.90;;;;;;6314626;28;20221;-72
2021/06/22 04:18:24;;;;;;;1.83;1.00;;;20.30;99.90;;;;;;6322310;28;20181;-72
2021/06/22 04:21:28;;;;;;;5.13;1.10;;;20.30;99.90;;;;;;6322718;28;20648;-72
2021/06/22 04:24:31;;;;;;;2.23;1.13;;;20.30;99.90;;;;;;6321874;28;20271;-72
2021/06/22 04:27:34;;;;;;;5.87;1.30;;;20.30;99.90;;;;;;6338962;28;20210;-72
2021/06/22 04:30:37;;;;;;;2.97;0.93;;;20.40;99.90;;;;;;6323216;28;20181;-72
2021/06/22 04:33:41;;;;;;;2.00;0.90;;;20.40;99.90;;;;;;6322892;28;20210;-71
2021/06/22 04:36:43;;;;;;;2.63;0.90;;;20.40;99.90;;;;;;6321931;28;20202;-72
2021/06/22 04:39:45;;;;;;;2.60;1.00;;;20.40;99.90;;;;;;6322326;28;20182;-72
2021/06/22 04:42:47;;;;;;;1.17;0.60;;;20.40;99.90;;;;;;6321352;28;20201;-72
2021/06/22 04:45:50;;;;;;;1.23;0.63;;;20.40;99.90;;;;;;6322324;28;20198;-72
2021/06/22 04:48:52;;;;;;;2.40;0.70;;;20.40;99.90;;;;;;6320854;28;20201;-72
2021/06/22 04:51:54;;;;;;;1.27;0.60;;;20.50;99.90;;;;;;6320866;28;20555;-72
2021/06/22 04:54:56;;;;;;;4.37;0.90;;;20.50;99.90;;;;;;6321852;28;20186;-72
2021/06/22 04:58:00;;;;;;;1.70;0.70;;;20.50;99.90;;;;;;6320992;28;20316;-72
2021/06/22 05:01:04;;;;;;;1.70;0.63;;;20.50;99.90;;;;;;6320766;28;20174;-72
2021/06/22 05:04:06;;;;;;;2.93;0.70;;;20.50;99.90;;;;;;6320568;28;20190;-72
2021/06/22 05:07:08;;;;;;;2.50;0.57;;;20.40;99.90;;;;;;6320805;28;20194;-72
2021/06/22 05:10:12;;;;;;;2.47;0.90;;;20.40;99.90;;;;;;6320082;28;20202;-72
2021/06/22 05:13:14;;;;;;;1.00;0.60;;;20.40;99.90;;;;;;6321370;28;20217;-72
2021/06/22 05:16:17;;;;;;;2.37;0.80;;;20.40;99.90;;;;;;6320058;28;20270;-72
2021/06/22 05:19:19;;;;;;;2.57;0.60;;;20.40;99.90;;;;;;6320594;28;20263;-72
2021/06/22 05:22:21;;;;;;;1.73;0.60;;;20.40;99.90;;;;;;6320092;28;20201;-72
2021/06/22 05:25:24;;;;;;;3.33;0.80;;;20.40;99.90;;;;;;6320476;28;20190;-71
2021/06/22 05:28:27;;;;;;;1.57;0.70;;;20.50;99.90;;;;;;6319978;28;20592;-71
2021/06/22 05:31:29;;;;;;;2.53;0.77;;;20.50;99.90;;;;;;6319764;28;20190;-71
2021/06/22 05:34:32;;;;;;;2.67;0.70;;;20.50;99.90;;;;;;6321268;28;20214;-71
2021/06/22 05:37:35;;;;;;;1.03;0.77;;;20.50;99.90;;;;;;6319876;28;20574;-71
2021/06/22 05:40:37;;;;;;;2.43;1.10;;;20.60;99.90;;;;;;6319409;28;20194;-71
2021/06/22 05:43:40;;;;;;;2.67;1.10;;;20.60;99.90;;;;;;6319684;28;20190;-71
2021/06/22 05:46:42;;;;;;;1.80;0.90;;;20.70;99.90;;;;;;6319484;28;20410;-71
2021/06/22 05:49:44;;;;;;;1.00;0.80;;;20.70;99.90;;;;;;6319668;28;20209;-71
2021/06/22 05:52:49;;;;;;;2.27;0.80;;;20.70;99.90;;;;;;6319589;28;20205;-71
2021/06/22 05:55:51;;;;;;;2.23;1.00;;;20.70;99.90;;;;;;6320573;28;20185;-71
2021/06/22 05:58:53;;;;;;;2.30;1.00;;;20.70;99.90;;;;;;6302765;28;20202;-71
2021/06/22 06:01:55;;;;;;;2.83;0.90;;;20.80;99.90;;;;;;6319021;28;20192;-71
2021/06/22 06:04:58;;;;;;;3.03;0.80;;;20.80;99.90;;;;;;6320804;28;20193;-71
2021/06/22 06:08:00;;;;;;;1.57;0.90;;;20.90;99.90;;;;;;6319150;28;20190;-71
2021/06/22 06:11:04;;;;;;;0.73;0.60;;;20.90;99.90;;;;;;6320049;28;20718;-71
2021/06/22 06:14:06;;;;;;;3.50;0.70;;;21.00;99.90;;;;;;6319039;28;20351;-71
2021/06/22 06:17:08;;;;;;;2.17;0.80;;;21.00;99.90;;;;;;6318536;28;20564;-71
2021/06/22 06:20:13;;;;;;;1.67;1.20;;;21.10;99.90;;;;;;6320889;28;20197;-71
2021/06/22 06:23:15;;;;;;;1.43;1.07;;;21.10;99.90;;;;;;6301618;28;20193;-71
2021/06/22 06:26:18;;;;;;;1.77;1.10;;;21.20;99.90;;;;;;6318890;28;20572;-71
2021/06/22 06:32:28;;;;;;;1.90;1.00;;;21.40;99.90;;;;;;6318194;28;20282;-71
2021/06/22 06:35:31;;;;;;;3.37;1.30;;;21.50;99.90;;;;;;6318779;28;20270;-71
2021/06/22 06:38:33;;;;;;;3.33;1.37;;;21.60;99.90;;;;;;6318173;28;20255;-71
2021/06/22 06:41:35;;;;;;;1.60;1.20;;;21.70;99.90;;;;;;6319810;28;20180;-71
2021/06/22 06:44:38;;;;;;;1.20;1.10;;;21.90;99.90;;;;;;6319905;28;20529;-71
2021/06/22 06:47:40;;;;;;;2.00;1.27;;;22.10;99.90;;;;;;6317867;28;20194;-71
2021/06/22 06:50:42;;;;;;;1.50;1.30;;;22.30;99.90;;;;;;6317768;28;20204;-71
2021/06/22 06:53:44;;;;;;;1.80;1.40;;;22.50;99.90;;;;;;6315737;28;20581;-71
2021/06/22 06:56:47;;;;;;;2.60;1.20;;;22.60;99.90;;;;;;6318308;28;20194;-71
2021/06/22 06:59:49;;;;;;;3.03;1.07;;;22.70;99.90;;;;;;6317899;28;20197;-71
2021/06/22 07:02:51;;;;;;;1.47;1.10;;;22.90;99.90;;;;;;6319393;28;20327;-71
2021/06/22 07:05:53;;;;;;;1.67;1.17;;;23.10;99.90;;;;;;6319517;28;20199;-71
2021/06/22 07:08:56;;;;;;;4.00;1.10;;;23.30;99.90;;;;;;6297660;28;20351;-71
2021/06/22 07:11:59;;;;;;;1.20;1.10;;;23.40;99.90;;;;;;6317118;28;20696;-71
2021/06/22 07:15:01;;;;;;;1.33;0.87;;;23.50;99.90;;;;;;6317539;28;20312;-71
2021/06/22 07:18:03;;;;;;;2.30;0.93;;;23.60;99.90;;;;;;6318201;28;20968;-71
2021/06/22 07:21:05;;;;;;;1.27;0.90;;;23.80;99.90;;;;;;6317816;28;20661;-71
2021/06/22 07:24:08;;;;;;;1.10;1.00;;;24.10;99.90;;;;;;6317605;28;20430;-71
2021/06/22 07:27:10;;;;;;;3.07;0.90;;;24.40;99.90;;;;;;6319668;28;20248;-71
2021/06/22 07:30:16;;;;;;;2.30;1.07;;;24.60;99.80;;;;;;6300746;28;20327;-72
2021/06/22 07:33:18;;;;;;;2.10;1.10;;;24.90;99.50;;;;;;6301089;28;20234;-72
2021/06/22 07:36:20;;;;;;;2.60;1.33;;;25.20;98.80;;;;;;6319176;28;20637;-72
2021/06/22 07:39:22;;;;;;;1.67;1.47;;;25.40;98.00;;;;;;6317541;28;20194;-72
2021/06/22 07:42:25;;;;;;;2.30;1.43;;;25.30;97.40;;;;;;6317736;28;20182;-72
2021/06/22 07:45:28;;;;;;;2.90;1.27;;;25.10;96.90;;;;;;6317902;28;20645;-72
2021/06/22 07:48:30;;;;;;;2.57;1.30;;;25.20;97.00;;;;;;6321191;28;20785;-72
2021/06/22 07:51:33;;;;;;;1.47;1.33;;;25.60;97.10;;;;;;6323766;28;20201;-72
2021/06/22 07:54:35;;;;;;;1.45;1.10;;;25.90;96.60;;;;;;6322234;28;20217;-72
2021/06/22 07:57:37;;;;;;;1.33;1.07;;;25.90;96.10;;;;;;6305952;28;20253;-72
2021/06/22 08:00:48;;;;;;;1.80;1.15;;;25.90;95.80;;;;;;6321961;28;20204;-72
2021/06/22 08:03:50;;;;;;;1.63;1.13;;;26.00;95.50;;;;;;6322364;28;20197;-72
2021/06/22 08:06:53;;;;;;;2.55;1.23;;;26.20;94.70;;;;;;6323094;28;20186;-71
2021/06/22 08:09:56;;;;;;;1.75;1.27;;;26.30;94.20;;;;;;6322385;28;20194;-71
2021/06/22 08:12:58;;;;;;;1.98;1.30;;;26.50;93.80;;;;;;6321772;28;20222;-71
2021/06/22 08:16:02;;;;;;;2.42;1.42;;;26.80;93.10;;;;;;6321649;28;20668;-71
2021/06/22 08:19:04;;;;;;;1.63;1.00;;;27.20;92.80;;;;;;6323444;28;20185;-71
2021/06/22 08:22:06;;;;;;;4.45;1.20;;;27.30;91.80;;;;;;6322546;28;20653;-72
2021/06/22 08:25:09;;;;;;;2.55;1.55;;;27.40;91.30;;;;;;6321923;28;20559;-72
2021/06/22 08:28:12;;;;;;;2.42;1.17;;;27.60;90.70;;;;;;6322004;28;20202;-71
2021/06/22 08:31:16;;;;;;;1.40;1.00;;;27.70;90.50;;;;;;6322385;28;20190;-71
2021/06/22 08:34:19;;;;;;;5.47;1.30;;;28.00;90.40;;;;;;6304704;28;20206;-71
2021/06/22 08:37:21;;;;;;;2.78;1.30;;;28.40;90.10;;;;;;6320967;28;20669;-71
2021/06/22 08:40:23;;;;;;;3.30;1.25;;;28.70;86.60;;;;;;6322778;28;20288;-71
2021/06/22 08:43:29;;;;;;;1.65;1.10;;;29.10;86.90;;;;;;6322169;28;20178;-71
2021/06/22 08:46:33;;;;;;;3.10;1.40;;;29.10;83.90;;;;;;6322858;28;20200;-71
2021/06/22 08:49:35;;;;;;;1.80;1.05;;;29.20;82.30;;;;;;6322414;28;20190;-71
2021/06/22 08:52:38;;;;;;;2.92;1.20;;;29.30;81.40;;;;;;6321946;28;20417;-71
2021/06/22 08:55:42;;;;;;;1.83;1.13;;;29.40;80.00;;;;;;6322147;28;20570;-71
2021/06/22 08:58:44;;;;;;;2.70;1.10;;;29.30;78.30;;;;;;6319257;28;20193;-71
2021/06/22 09:01:46;;;;;;;4.88;1.40;;;29.50;78.90;;;;;;6320783;28;20709;-71
2021/06/22 09:04:49;;;;;;;3.30;1.40;;;29.60;76.50;;;;;;6320942;28;20190;-71
2021/06/22 09:07:53;;;;;;;3.03;0.98;;;29.50;75.30;;;;;;6322435;28;20557;-71
2021/06/22 09:11:15;;;;;;;2.17;1.20;;;29.40;76.90;;;;;;6321877;28;20273;-71
2021/06/22 09:14:33;;;;;;;4.32;1.27;;;29.60;74.40;;;;;;6321470;28;20661;-71
2021/06/22 09:17:36;;;;;;;2.38;1.20;;;29.90;75.70;;;;;;6322179;28;20197;-71
2021/06/22 09:20:40;;;;;;;2.55;1.45;;;30.20;73.50;;;;;;6303334;28;20367;-71
2021/06/22 09:23:45;;;;;;;1.77;1.00;;;30.70;71.10;;;;;;6321597;28;20190;-71
2021/06/22 09:26:49;;;;;;;3.28;1.25;;;30.90;69.60;;;;;;6303564;28;20202;-71
2021/06/22 09:29:52;;;;;;;3.00;1.30;;;31.40;68.80;;;;;;6295425;28;20195;-71
2021/06/22 09:32:54;;;;;;;1.73;1.27;;;31.70;65.70;;;;;;6295099;28;20252;-71
2021/06/22 09:35:59;;;;;;;2.03;1.25;;;31.70;65.40;;;;;;6295605;28;20202;-71
2021/06/22 09:39:08;;;;;;;3.10;1.20;;;31.80;65.10;;;;;;6295042;28;20186;-71
2021/06/22 09:42:12;;;;;;;3.42;1.40;;;31.80;65.80;;;;;;6311832;28;20195;-71
2021/06/22 09:45:20;;;;;;;2.53;1.42;;;32.00;64.50;;;;;;6294315;28;20202;-71
2021/06/22 09:48:27;;;;;;;3.40;1.30;;;32.30;63.70;;;;;;6294523;28;20195;-71
2021/06/22 09:51:40;;;;;;;2.85;1.25;;;32.60;60.70;;;;;;6295772;28;20175;-71
2021/06/22 09:54:42;;;;;;;1.70;1.10;;;33.10;60.60;;;;;;6295857;28;20203;-71
2021/06/22 09:57:44;;;;;;;3.67;1.40;;;33.10;59.30;;;;;;6303099;28;20994;-71
2021/06/22 10:00:47;;;;;;;2.28;1.42;;;33.30;58.30;;;;;;6320971;28;20193;-71
2021/06/22 10:03:49;;;;;;;2.88;1.20;;;33.40;57.10;;;;;;6320514;28;20280;-71
2021/06/22 10:07:14;;;;;;;1.75;1.33;;;33.10;57.30;;;;;;6320671;28;20186;-71
2021/06/22 10:10:16;;;;;;;3.80;1.42;;;33.10;57.40;;;;;;6319203;28;20186;-71
2021/06/22 10:13:43;;;;;;;3.08;1.20;;;33.00;56.70;;;;;;6319707;28;20226;-71
2021/06/22 10:16:46;;;;;;;4.00;1.45;;;32.90;56.80;;;;;;6294188;28;20183;-71
2021/06/22 10:19:56;;;;;;;1.73;1.30;;;33.20;56.80;;;;;;6294980;28;20265;-71
2021/06/22 10:22:59;;;;;;;4.10;1.23;;;33.70;57.10;;;;;;6293835;28;20173;-71
2021/06/22 10:26:02;;;;;;;1.95;1.30;;;33.80;55.30;;;;;;6293816;28;20186;-71
2021/06/22 10:29:04;;;;;;;1.85;1.20;;;33.60;55.20;;;;;;6312147;28;20206;-71
2021/06/22 10:32:06;;;;;;;2.20;1.20;;;33.60;55.60;;;;;;6318836;28;20290;-71
2021/06/22 10:35:16;;;;;;;2.20;1.27;;;34.00;55.50;;;;;;6319545;28;20214;-71
2021/06/22 10:38:22;;;;;;;3.70;1.27;;;34.40;54.50;;;;;;6318652;28;20283;-71
2021/06/22 10:41:26;;;;;;;1.85;1.40;;;34.80;54.40;;;;;;6318696;28;20171;-71
2021/06/22 10:44:38;;;;;;;1.85;1.40;;;34.80;52.70;;;;;;6318273;28;20550;-71
2021/06/22 10:47:42;;;;;;;1.92;1.38;;;34.60;53.30;;;;;;6318689;28;20178;-71
2021/06/22 10:50:44;;;;;;;3.00;1.42;;;34.10;53.10;;;;;;6318274;28;20200;-71
2021/06/22 10:53:47;;;;;;;3.35;1.35;;;34.00;54.70;;;;;;6318373;28;20209;-71
2021/06/22 10:56:50;;;;;;;2.13;1.52;;;34.00;53.60;;;;;;6317986;28;20202;-71
2021/06/22 11:00:03;;;;;;;1.92;1.40;;;34.60;53.80;;;;;;6295121;28;20198;-71
2021/06/22 11:03:09;;;;;;;2.80;1.40;;;35.00;52.40;;;;;;6293077;28;20276;-71
2021/06/22 11:06:12;;;;;;;5.60;1.42;;;35.40;51.90;;;;;;6293090;28;20175;-71
2021/06/22 11:09:16;;;;;;;3.33;1.25;;;35.40;50.30;;;;;;6293469;28;20533;-71
2021/06/22 11:12:19;;;;;;;3.17;1.52;;;34.90;50.30;;;;;;6293909;28;20238;-71
2021/06/22 11:15:21;;;;;;;2.83;1.20;;;34.40;50.80;;;;;;6309556;28;20676;-71
2021/06/22 11:18:24;;;;;;;1.65;1.15;;;34.30;51.20;;;;;;6318307;28;20190;-71
2021/06/22 11:21:36;;;;;;;4.22;1.33;;;34.90;51.50;;;;;;6317652;28;20216;-71
2021/06/22 11:24:38;;;;;;;2.03;1.35;;;35.00;50.40;;;;;;6324891;28;20255;-71
2021/06/22 11:28:05;;;;;;;5.05;1.38;;;34.70;50.60;;;;;;6324446;28;20196;-71
2021/06/22 11:31:08;;;;;;;3.63;1.60;;;34.60;51.70;;;;;;6323546;28;20189;-72
2021/06/22 11:34:30;;;;;;;2.60;1.52;;;34.90;50.30;;;;;;6323691;28;20692;-71
2021/06/22 11:37:32;;;;;;;2.65;1.30;;;34.80;50.20;;;;;;6323098;28;20214;-71
2021/06/22 11:40:34;;;;;;;2.70;1.23;;;34.80;49.00;;;;;;6324255;28;20672;-71
2021/06/22 11:43:37;;;;;;;2.42;1.42;;;34.70;49.90;;;;;;6322389;28;20657;-71
2021/06/22 11:46:44;;;;;;;3.45;1.50;;;34.40;50.80;;;;;;6322599;28;20198;-71
2021/06/22 11:49:48;;;;;;;1.80;1.42;;;34.40;50.50;;;;;;6322410;28;20247;-71
2021/06/22 11:52:58;;;;;;;2.85;1.35;;;34.90;51.60;;;;;;6322388;28;20197;-71
2021/06/22 11:56:02;;;;;;;2.42;1.40;;;35.40;49.10;;;;;;6323354;28;20201;-71
2021/06/22 11:59:05;;;;;;;2.25;1.50;;;35.40;49.70;;;;;;6323535;28;20659;-71
2021/06/22 12:02:07;;;;;;;2.55;1.40;;;35.60;48.80;;;;;;6305699;28;20185;-71
2021/06/22 12:05:14;;;;;;;2.90;1.42;;;36.00;48.40;;;;;;6321985;28;20536;-71
2021/06/22 12:08:27;;;;;;;4.10;1.40;;;36.30;48.00;;;;;;6323562;28;20174;-71
2021/06/22 12:11:37;;;;;;;2.97;1.13;;;36.40;47.70;;;;;;6323112;28;20230;-71
2021/06/22 12:14:46;;;;;;;2.97;1.50;;;36.70;47.30;;;;;;6321789;28;20241;-71
2021/06/22 12:17:50;;;;;;;2.03;1.20;;;36.80;46.80;;;;;;6322232;28;20170;-71
2021/06/22 12:20:52;;;;;;;2.67;1.40;;;36.20;46.00;;;;;;6322843;28;20234;-71
2021/06/22 12:24:12;;;;;;;1.85;1.10;;;36.10;46.60;;;;;;6323008;28;20190;-71
2021/06/22 12:27:14;;;;;;;2.33;1.15;;;36.50;46.20;;;;;;6321420;28;20209;-71
2021/06/22 12:30:31;;;;;;;4.03;1.40;;;36.80;44.50;;;;;;6322949;28;20537;-71
2021/06/22 12:33:40;;;;;;;2.97;1.40;;;36.60;45.20;;;;;;6321178;28;20836;-71
2021/06/22 12:36:42;;;;;;;2.47;1.30;;;36.80;45.40;;;;;;6321651;28;20245;-71
2021/06/22 12:39:44;;;;;;;1.85;1.35;;;37.10;44.80;;;;;;6321587;28;20753;-71
2021/06/22 12:42:47;;;;;;;4.80;1.33;;;37.20;43.90;;;;;;6322208;28;20262;-71
2021/06/22 12:46:02;;;;;;;1.80;1.35;;;37.20;44.00;;;;;;6322486;28;20688;-71
2021/06/22 12:49:10;;;;;;;5.18;1.52;;;37.50;44.70;;;;;;6322155;28;20198;-71
2021/06/22 12:52:16;;;;;;;2.13;1.20;;;37.70;43.80;;;;;;6321272;28;20561;-71
2021/06/22 12:55:35;;;;;;;2.15;1.23;;;38.10;43.70;;;;;;6321862;28;20298;-71
2021/06/22 12:58:56;;;;;;;3.42;1.40;;;38.40;43.20;;;;;;6320873;28;20210;-71
2021/06/22 13:02:08;;;;;;;3.00;1.40;;;38.60;42.60;;;;;;6322147;28;20194;-71
2021/06/22 13:05:10;;;;;;;3.40;1.40;;;38.60;43.10;;;;;;6320565;28;20178;-71
2021/06/22 13:08:18;;;;;;;2.58;1.27;;;38.80;43.00;;;;;;6320779;28;20204;-71
2021/06/22 13:11:25;;;;;;;2.80;1.70;;;38.50;43.00;;;;;;6320195;28;20283;-71
2021/06/22 13:14:38;;;;;;;3.33;1.60;;;37.50;43.50;;;;;;6320507;28;20213;-71
2021/06/22 13:17:40;;;;;;;3.55;1.63;;;37.40;43.70;;;;;;6321594;28;20174;-71
2021/06/22 13:20:43;;;;;;;2.67;1.50;;;37.30;43.90;;;;;;6320327;28;20606;-71
2021/06/22 13:23:45;;;;;;;2.42;1.23;;;37.70;43.50;;;;;;6321513;28;20183;-71
2021/06/22 13:26:48;;;;;;;2.72;1.30;;;38.00;42.80;;;;;;6320052;28;20198;-71
2021/06/22 13:30:04;;;;;;;1.40;1.30;;;38.40;42.60;;;;;;6319974;28;20206;-71
2021/06/22 13:33:06;;;;;;;4.05;1.73;;;38.90;42.70;;;;;;6319649;28;20261;-71
2021/06/22 13:36:19;;;;;;;1.92;1.30;;;39.20;41.80;;;;;;6320043;28;20221;-71
2021/06/22 13:39:22;;;;;;;3.47;1.65;;;39.50;42.10;;;;;;6320388;28;20166;-71
2021/06/22 13:42:25;;;;;;;4.20;1.60;;;39.20;40.70;;;;;;6319492;28;20312;-71
2021/06/22 13:45:35;;;;;;;3.08;1.85;;;38.90;41.50;;;;;;6320487;28;20192;-71
2021/06/22 13:48:51;;;;;;;2.03;1.30;;;38.70;41.80;;;;;;6321034;28;20186;-71
2021/06/22 13:51:58;;;;;;;3.10;1.42;;;38.90;41.70;;;;;;6320076;28;20748;-71
2021/06/22 13:55:03;;;;;;;3.40;1.50;;;39.40;40.80;;;;;;6320700;28;20198;-71
2021/06/22 13:58:07;;;;;;;4.82;1.52;;;40.00;40.70;;;;;;6320666;28;20187;-71
2021/06/22 14:01:11;;;;;;;3.97;1.35;;;40.00;40.40;;;;;;6320766;28;20688;-71
2021/06/22 14:04:14;;;;;;;2.67;1.42;;;39.50;40.00;;;;;;6319173;28;20646;-71
2021/06/22 14:07:16;;;;;;;3.03;1.45;;;39.20;40.30;;;;;;6320873;28;20755;-71
2021/06/22 14:10:18;;;;;;;3.90;1.70;;;39.10;40.90;;;;;;6302112;28;20309;-71
2021/06/22 14:13:23;;;;;;;2.92;1.70;;;39.60;39.90;;;;;;6320342;28;20577;-71
2021/06/22 14:16:30;;;;;;;3.50;1.63;;;39.90;40.00;;;;;;6294006;28;20264;-71
2021/06/22 14:19:32;;;;;;;2.80;1.60;;;40.30;39.90;;;;;;6295348;28;20182;-71
2021/06/22 14:22:34;;;;;;;5.15;1.65;;;40.90;38.70;;;;;;6293903;28;20371;-71
2021/06/22 14:25:41;;;;;;;3.42;1.58;;;41.10;38.30;;;;;;6293184;28;20567;-71
2021/06/22 14:28:43;;;;;;;5.60;1.80;;;41.10;38.10;;;;;;6311077;28;20770;-71
2021/06/22 14:31:46;;;;;;;3.17;1.80;;;41.40;38.40;;;;;;6319702;28;20181;-71
2021/06/22 14:34:48;;;;;;;3.35;1.77;;;41.50;37.80;;;;;;6319959;28;20666;-71
2021/06/22 14:37:52;;;;;;;4.07;1.67;;;41.10;37.70;;;;;;6319920;28;20206;-71
2021/06/22 14:40:55;;;;;;;4.20;1.65;;;40.10;38.60;;;;;;6319385;28;20194;-71
2021/06/22 14:43:57;;;;;;;2.17;1.45;;;39.10;40.80;;;;;;6319797;28;20174;-71
2021/06/22 14:47:00;;;;;;;2.55;1.63;;;38.20;42.80;;;;;;6319524;28;20200;-71
2021/06/22 14:50:05;;;;;;;4.13;1.90;;;37.20;42.30;;;;;;6318493;28;20718;-71
2021/06/22 14:53:11;;;;;;;3.20;1.90;;;36.70;44.00;;;;;;6318157;28;20183;-71
2021/06/22 14:56:13;;;;;;;2.60;1.60;;;36.20;44.60;;;;;;6317325;28;20202;-71
2021/06/22 14:59:15;;;;;;;4.10;1.70;;;35.60;45.50;;;;;;6319315;28;20567;-71
2021/06/22 15:02:19;;;;;;;3.00;1.92;;;35.30;46.70;;;;;;6319203;28;20189;-71
2021/06/22 15:05:21;;;;;;;2.58;1.70;;;35.20;47.30;;;;;;6319558;28;20203;-71
2021/06/22 15:08:24;;;;;;;4.03;1.85;;;35.10;48.20;;;;;;6318964;28;20192;-71
2021/06/22 15:11:29;;;;;;;1.50;1.40;;;34.90;48.50;;;;;;6318149;28;20689;-71
2021/06/22 15:14:31;;;;;;;3.38;1.65;;;34.90;48.90;;;;;;6319303;28;20198;-71
2021/06/22 15:17:35;;;;;;;2.50;1.50;;;34.90;49.20;;;;;;6317859;28;20200;-71
2021/06/22 15:20:38;;;;;;;2.83;1.50;;;34.70;49.30;;;;;;6319428;28;20269;-71
2021/06/22 15:23:40;;;;;;;2.55;1.90;;;34.50;49.70;;;;;;6318730;28;20182;-71
2021/06/22 15:26:43;;;;;;;2.70;2.22;;;34.20;50.50;;;;;;6319496;28;20194;-71
2021/06/22 15:29:45;;;;;;;2.67;1.90;;;34.00;50.80;;;;;;6319263;28;20267;-71
2021/06/22 15:32:50;;;;;;;2.42;1.80;;;33.80;51.10;;;;;;6318839;28;20186;-71
2021/06/22 15:35:55;;;;;;;2.22;1.90;;;33.80;51.70;;;;;;6317628;28;20613;-71
2021/06/22 15:38:57;;;;;;;2.60;2.10;;;33.70;51.60;;;;;;6317682;28;20261;-71
2021/06/22 15:41:59;;;;;;;2.33;1.83;;;33.40;52.20;;;;;;6317628;28;20198;-71
2021/06/22 15:45:03;;;;;;;3.05;2.08;;;33.00;52.80;;;;;;6319139;28;20193;-71
2021/06/22 15:48:06;;;;;;;2.67;1.75;;;33.00;52.90;;;;;;6317519;28;20554;-71
2021/06/22 15:51:08;;;;;;;5.25;2.20;;;32.80;53.20;;;;;;6317860;28;20247;-71
2021/06/22 15:54:11;;;;;;;2.17;1.65;;;32.60;53.60;;;;;;6318627;28;20216;-71
2021/06/22 15:57:13;;;;;;;2.15;1.92;;;32.40;54.10;;;;;;6317828;28;20231;-71
2021/06/22 16:00:17;;;;;;;3.28;1.80;;;32.10;54.60;;;;;;6319607;28;20190;-71
2021/06/22 16:03:19;;;;;;;5.05;2.00;;;32.10;55.00;;;;;;6318733;28;20231;-71